Time;durP1;ratioP1;P1;durP2;ratioP2;P2;SDS_P1;SDS_P2;PMS_P1;PMS_P2;Temp;Humidity;BMP_temperature;BMP_pressure;BME280_temperature;BME280_humidity;BME280_pressure;Samples;Min_cycle;Max_cycle;Signal;HPM_P1;HPM_P2
2023/04/28 00:00:25;;;;;;;4.57;1.67;;;;;;;;;;5029439;28;20471;-78
2023/04/28 00:02:52;;;;;;;3.10;1.57;;;;;;;;;;5039256;28;21111;-80
2023/04/28 00:05:18;;;;;;;3.97;1.70;;;;;;;;;;5039583;28;20441;-79
2023/04/28 00:07:44;;;;;;;5.28;1.88;;;;;;;;;;5037973;28;20435;-78
2023/04/28 00:10:10;;;;;;;3.97;1.67;;;;;;;;;;5029553;28;20405;-79
2023/04/28 00:12:37;;;;;;;3.20;1.75;;;;;;;;;;5031535;28;20410;-79
2023/04/28 00:15:03;;;;;;;4.07;2.40;;;;;;;;;;5025770;28;20462;-79
2023/04/28 00:17:29;;;;;;;4.90;1.90;;;;;;;;;;5030034;28;20455;-79
2023/04/28 00:19:55;;;;;;;2.58;1.50;;;;;;;;;;5034701;28;20528;-78
2023/04/28 00:22:21;;;;;;;5.07;2.30;;;;;;;;;;5029558;28;20450;-79
2023/04/28 00:24:47;;;;;;;4.13;1.67;;;;;;;;;;5032230;28;20535;-78
2023/04/28 00:27:13;;;;;;;3.35;1.75;;;;;;;;;;5027826;28;20586;-79
2023/04/28 00:29:38;;;;;;;6.57;1.67;;;;;;;;;;5029993;28;20401;-79
2023/04/28 00:32:04;;;;;;;3.57;2.00;;;;;;;;;;5027602;28;20924;-79
2023/04/28 00:34:36;;;;;;;4.93;2.25;;;;;;;;;;5031997;28;20867;-80
2023/04/28 00:37:02;;;;;;;4.13;2.30;;;;;;;;;;5026107;28;20435;-78
2023/04/28 00:39:28;;;;;;;3.83;2.23;;;;;;;;;;5045833;28;20413;-78
2023/04/28 00:41:54;;;;;;;5.38;1.88;;;;;;;;;;5032045;28;20501;-78
2023/04/28 00:44:20;;;;;;;3.35;1.92;;;;;;;;;;5038823;28;20416;-77
2023/04/28 00:46:46;;;;;;;4.22;2.08;;;;;;;;;;5041484;28;20428;-78
2023/04/28 00:49:12;;;;;;;3.90;2.28;;;;;;;;;;5040811;28;20392;-78
2023/04/28 00:51:38;;;;;;;4.82;2.65;;;;;;;;;;5037551;28;20461;-77
2023/04/28 00:54:06;;;;;;;5.22;2.40;;;;;;;;;;5026534;28;20413;-78
2023/04/28 00:56:32;;;;;;;5.15;2.67;;;;;;;;;;5032045;28;20410;-79
2023/04/28 00:58:58;;;;;;;4.10;2.15;;;;;;;;;;5030005;28;20438;-78
2023/04/28 01:01:24;;;;;;;5.35;2.33;;;;;;;;;;5026428;28;20557;-79
2023/04/28 01:03:50;;;;;;;4.43;2.20;;;;;;;;;;5036053;28;20402;-78
2023/04/28 01:06:16;;;;;;;4.80;2.53;;;;;;;;;;5029006;28;20447;-78
2023/04/28 01:08:42;;;;;;;4.70;2.38;;;;;;;;;;5038418;28;20564;-78
2023/04/28 01:11:12;;;;;;;5.13;2.00;;;;;;;;;;5040429;28;20770;-79
2023/04/28 01:13:38;;;;;;;4.90;2.55;;;;;;;;;;5037657;28;20403;-79
2023/04/28 01:16:04;;;;;;;4.17;2.27;;;;;;;;;;5026897;28;20428;-79
2023/04/28 01:18:31;;;;;;;3.55;2.00;;;;;;;;;;5042882;28;20420;-79
2023/04/28 01:20:57;;;;;;;4.90;2.30;;;;;;;;;;5032989;28;20508;-78
2023/04/28 01:23:23;;;;;;;7.30;2.30;;;;;;;;;;5033948;28;20491;-79
2023/04/28 01:25:49;;;;;;;6.07;2.63;;;;;;;;;;5030583;28;20443;-79
2023/04/28 01:28:15;;;;;;;4.45;2.65;;;;;;;;;;5030561;28;20429;-78
2023/04/28 01:30:41;;;;;;;4.97;2.55;;;;;;;;;;5035291;28;20403;-78
2023/04/28 01:33:07;;;;;;;5.10;3.05;;;;;;;;;;5041086;28;20450;-79
2023/04/28 01:35:33;;;;;;;3.97;2.17;;;;;;;;;;5026314;28;20886;-78
2023/04/28 01:37:59;;;;;;;5.20;2.40;;;;;;;;;;5030192;28;20413;-79
2023/04/28 01:40:25;;;;;;;6.13;2.57;;;;;;;;;;5024068;28;20682;-78
2023/04/28 01:42:51;;;;;;;4.65;2.20;;;;;;;;;;5032208;28;20813;-78
2023/04/28 01:45:17;;;;;;;4.57;2.45;;;;;;;;;;5032013;28;20410;-79
2023/04/28 01:47:43;;;;;;;4.28;2.20;;;;;;;;;;5042388;28;20530;-78
2023/04/28 01:50:09;;;;;;;4.47;2.30;;;;;;;;;;5032147;28;20411;-78
2023/04/28 01:52:35;;;;;;;7.67;2.73;;;;;;;;;;5037774;28;20518;-78
2023/04/28 01:55:01;;;;;;;4.50;2.30;;;;;;;;;;5027392;28;20481;-78
2023/04/28 01:57:28;;;;;;;4.50;2.53;;;;;;;;;;5019593;28;20417;-78
2023/04/28 01:59:54;;;;;;;4.43;2.70;;;;;;;;;;5030820;28;20519;-79
2023/04/28 02:02:20;;;;;;;5.63;2.80;;;;;;;;;;5034495;28;20477;-78
2023/04/28 02:04:46;;;;;;;5.00;2.80;;;;;;;;;;5032157;28;20437;-78
2023/04/28 02:07:12;;;;;;;5.80;2.80;;;;;;;;;;5038914;28;20975;-78
2023/04/28 02:09:38;;;;;;;5.00;2.90;;;;;;;;;;5047972;28;20412;-79
2023/04/28 02:12:04;;;;;;;5.35;2.75;;;;;;;;;;5034024;28;20505;-78
2023/04/28 02:14:31;;;;;;;8.80;3.42;;;;;;;;;;5040025;28;20401;-78
2023/04/28 02:16:57;;;;;;;5.33;2.80;;;;;;;;;;5046963;28;20504;-79
2023/04/28 02:19:23;;;;;;;5.78;3.13;;;;;;;;;;5032255;28;20405;-79
2023/04/28 02:21:49;;;;;;;5.25;2.65;;;;;;;;;;5035635;28;20424;-79
2023/04/28 02:24:15;;;;;;;6.82;2.92;;;;;;;;;;5022985;28;20402;-79
2023/04/28 02:26:41;;;;;;;6.03;3.23;;;;;;;;;;5027567;28;20438;-78
2023/04/28 02:29:07;;;;;;;6.30;3.63;;;;;;;;;;5028138;28;20429;-77
2023/04/28 02:31:33;;;;;;;5.15;3.17;;;;;;;;;;5035909;28;20473;-79
2023/04/28 02:33:59;;;;;;;7.30;3.78;;;;;;;;;;5034609;28;21005;-78
2023/04/28 02:36:26;;;;;;;6.97;3.70;;;;;;;;;;5033150;28;20433;-79
2023/04/28 02:38:52;;;;;;;5.77;3.13;;;;;;;;;;5034192;28;20399;-80
2023/04/28 02:41:18;;;;;;;6.90;3.72;;;;;;;;;;5038288;28;20401;-79
2023/04/28 02:43:44;;;;;;;5.25;3.00;;;;;;;;;;5038912;28;20431;-78
2023/04/28 02:46:10;;;;;;;5.85;3.38;;;;;;;;;;5033423;28;21033;-78
2023/04/28 02:48:36;;;;;;;5.38;2.85;;;;;;;;;;5024059;28;20408;-79
2023/04/28 02:51:02;;;;;;;5.20;3.03;;;;;;;;;;5031345;28;20416;-78
2023/04/28 02:53:28;;;;;;;7.97;2.90;;;;;;;;;;5027813;28;21509;-79
2023/04/28 02:55:54;;;;;;;6.13;3.05;;;;;;;;;;5041510;28;20916;-78
2023/04/28 02:58:20;;;;;;;5.60;2.75;;;;;;;;;;5035427;28;20435;-78
2023/04/28 03:00:46;;;;;;;5.75;2.97;;;;;;;;;;5034453;28;20500;-78
2023/04/28 03:03:12;;;;;;;6.68;3.33;;;;;;;;;;5028198;28;20405;-78
2023/04/28 03:05:38;;;;;;;5.70;3.07;;;;;;;;;;5031718;28;20434;-79
2023/04/28 03:08:05;;;;;;;5.15;2.70;;;;;;;;;;5034028;28;20530;-79
2023/04/28 03:10:31;;;;;;;5.33;3.23;;;;;;;;;;5028952;28;20448;-78
2023/04/28 03:12:57;;;;;;;5.30;2.42;;;;;;;;;;5034274;28;20920;-78
2023/04/28 03:15:23;;;;;;;6.13;3.05;;;;;;;;;;5029681;28;22435;-79
2023/04/28 03:17:49;;;;;;;5.63;3.60;;;;;;;;;;5023797;28;20409;-79
2023/04/28 03:20:15;;;;;;;6.38;3.38;;;;;;;;;;5024538;28;21161;-78
2023/04/28 03:22:41;;;;;;;5.10;2.90;;;;;;;;;;5050318;28;20429;-79
2023/04/28 03:25:07;;;;;;;9.60;4.37;;;;;;;;;;5033020;28;21036;-77
2023/04/28 03:27:33;;;;;;;7.47;4.00;;;;;;;;;;5043907;28;20973;-77
2023/04/28 03:29:59;;;;;;;6.57;3.38;;;;;;;;;;5046494;28;20405;-78
2023/04/28 03:32:25;;;;;;;5.10;3.05;;;;;;;;;;5037384;28;20403;-79
2023/04/28 03:34:51;;;;;;;8.73;3.92;;;;;;;;;;5027620;28;21268;-78
2023/04/28 03:37:17;;;;;;;7.45;4.05;;;;;;;;;;5035048;28;20411;-79
2023/04/28 03:39:43;;;;;;;7.88;3.85;;;;;;;;;;5038733;28;20548;-79
2023/04/28 03:42:09;;;;;;;6.90;3.87;;;;;;;;;;5037703;28;20438;-77
2023/04/28 03:44:35;;;;;;;7.45;3.78;;;;;;;;;;5026509;28;20489;-78
2023/04/28 03:47:01;;;;;;;7.43;4.38;;;;;;;;;;5034027;28;20447;-79
2023/04/28 03:49:27;;;;;;;7.88;3.50;;;;;;;;;;5033626;28;20404;-78
2023/04/28 03:51:53;;;;;;;6.60;3.58;;;;;;;;;;5028734;28;20634;-78
2023/04/28 03:54:19;;;;;;;5.70;3.57;;;;;;;;;;5033333;28;20442;-78
2023/04/28 03:56:45;;;;;;;11.38;5.00;;;;;;;;;;5037679;28;20926;-78
2023/04/28 03:59:11;;;;;;;6.90;3.72;;;;;;;;;;5035243;28;20412;-78
2023/04/28 04:01:38;;;;;;;8.10;4.13;;;;;;;;;;5031339;28;20494;-79
2023/04/28 04:04:04;;;;;;;6.63;3.67;;;;;;;;;;5045772;28;20413;-79
2023/04/28 04:06:31;;;;;;;6.05;3.88;;;;;;;;;;5026341;28;20437;-78
2023/04/28 04:08:57;;;;;;;8.05;4.07;;;;;;;;;;5026187;28;20449;-78
2023/04/28 04:11:23;;;;;;;7.00;3.83;;;;;;;;;;5032570;28;20411;-77
2023/04/28 04:13:49;;;;;;;16.77;4.65;;;;;;;;;;5034324;28;20412;-79
2023/04/28 04:16:15;;;;;;;7.17;3.50;;;;;;;;;;5035750;28;21077;-77
2023/04/28 04:18:41;;;;;;;6.13;3.40;;;;;;;;;;5034272;28;20966;-78
2023/04/28 04:21:07;;;;;;;7.25;3.35;;;;;;;;;;5036231;28;20407;-78
2023/04/28 04:23:33;;;;;;;8.32;4.60;;;;;;;;;;5042767;28;20411;-78
2023/04/28 04:25:59;;;;;;;4.80;3.00;;;;;;;;;;5049253;28;20425;-78
2023/04/28 04:28:25;;;;;;;6.72;3.85;;;;;;;;;;5044645;28;20792;-79
2023/04/28 04:30:51;;;;;;;8.23;3.80;;;;;;;;;;5053338;28;20397;-79
2023/04/28 04:33:17;;;;;;;5.70;3.53;;;;;;;;;;5051430;28;20977;-78
2023/04/28 04:35:43;;;;;;;5.68;3.38;;;;;;;;;;5051372;28;20442;-80
2023/04/28 04:38:09;;;;;;;6.22;4.00;;;;;;;;;;5055834;28;20395;-79
2023/04/28 04:40:35;;;;;;;7.97;4.18;;;;;;;;;;5052951;28;20391;-78
2023/04/28 04:43:01;;;;;;;7.47;3.35;;;;;;;;;;5053676;28;20428;-78
2023/04/28 04:45:27;;;;;;;5.97;3.38;;;;;;;;;;5047117;28;20402;-80
2023/04/28 04:47:53;;;;;;;5.00;3.13;;;;;;;;;;5052829;28;20938;-80
2023/04/28 04:50:19;;;;;;;5.25;2.90;;;;;;;;;;5045458;28;20506;-78
2023/04/28 04:52:45;;;;;;;6.97;2.65;;;;;;;;;;5045911;28;21673;-79
2023/04/28 04:55:11;;;;;;;5.47;2.67;;;;;;;;;;5048486;28;20397;-79
2023/04/28 04:57:37;;;;;;;6.40;3.13;;;;;;;;;;5051445;28;20529;-78
2023/04/28 05:00:04;;;;;;;6.50;3.65;;;;;;;;;;5049851;28;20936;-79
2023/04/28 05:02:30;;;;;;;8.43;3.65;;;;;;;;;;5051838;28;20407;-79
2023/04/28 05:04:56;;;;;;;8.30;4.35;;;;;;;;;;5043914;28;20414;-79
2023/04/28 05:07:22;;;;;;;8.45;4.38;;;;;;;;;;5049355;28;20922;-78
2023/04/28 05:09:48;;;;;;;7.57;3.92;;;;;;;;;;5044423;28;20483;-78
2023/04/28 05:12:14;;;;;;;6.67;4.00;;;;;;;;;;5049737;28;20953;-78
2023/04/28 05:14:40;;;;;;;8.60;4.63;;;;;;;;;;5042967;28;20393;-78
2023/04/28 05:17:06;;;;;;;9.75;5.18;;;;;;;;;;5047471;28;20591;-78
2023/04/28 05:19:32;;;;;;;8.57;4.50;;;;;;;;;;5048275;28;20495;-77
2023/04/28 05:21:59;;;;;;;9.38;4.43;;;;;;;;;;5042651;28;20404;-78
2023/04/28 05:24:25;;;;;;;7.63;4.13;;;10.40;99.90;;;;;;5058152;28;20924;-79
2023/04/28 05:26:52;;;;;;;7.73;4.20;;;;;;;;;;5050192;28;20431;-79
2023/04/28 05:29:18;;;;;;;11.02;4.78;;;;;;;;;;5047052;28;20903;-77
2023/04/28 05:31:44;;;;;;;7.40;4.60;;;;;;;;;;5043327;28;20834;-79
2023/04/28 05:34:10;;;;;;;8.18;4.53;;;;;;;;;;5040215;28;20411;-77
2023/04/28 05:36:37;;;;;;;9.48;5.65;;;;;;;;;;5044390;28;20412;-78
2023/04/28 05:39:03;;;;;;;9.95;4.80;;;;;;;;;;5051470;28;20416;-78
2023/04/28 05:41:29;;;;;;;9.45;4.78;;;;;;;;;;5036368;28;20422;-77
2023/04/28 05:43:55;;;;;;;8.20;4.05;;;;;;;;;;5043339;28;20429;-77
2023/04/28 05:46:21;;;;;;;;;;;;;;;;;;5044755;28;20029;-77
2023/04/28 05:48:46;;;;;;;;;;;;;;;;;;5049934;28;19966;-77
2023/04/28 05:51:13;;;;;;;8.65;3.58;;;;;;;;;;5045527;28;19920;-77
2023/04/28 05:53:38;;;;;;;7.78;3.97;;;;;;;;;;5051389;28;20577;-77
2023/04/28 05:56:05;;;;;;;7.68;3.47;;;;;;;;;;5048372;28;20222;-77
2023/04/28 05:58:31;;;;;;;8.07;4.85;;;;;;;;;;5041294;28;20401;-78
2023/04/28 06:00:57;;;;;;;8.90;4.90;;;;;;;;;;5051392;28;20021;-77
2023/04/28 06:03:22;;;;;;;7.55;4.78;;;;;;;;;;5048914;28;20048;-77
2023/04/28 06:05:49;;;;;;;10.70;3.88;;;;;;;;;;5043185;28;20029;-78
2023/04/28 06:08:15;;;;;;;9.10;4.30;;;;;;;;;;5053289;28;20077;-77
2023/04/28 06:10:41;;;;;;;7.88;3.88;;;;;;;;;;5041075;28;20029;-78
2023/04/28 06:13:08;;;;;;;7.35;4.95;;;;;;;;;;5046948;28;20074;-77
2023/04/28 06:15:33;;;;;;;8.13;3.63;;;11.20;99.90;;;;;;5040858;28;20028;-77
2023/04/28 06:18:00;;;;;;;7.63;4.03;;;;;;;;;;5053680;28;20021;-78
2023/04/28 06:20:26;;;;;;;8.52;3.92;;;;;;;;;;5046604;28;20060;-77
2023/04/28 06:22:52;;;;;;;8.30;3.95;;;;;;;;;;5043549;28;20512;-77
2023/04/28 06:25:18;;;;;;;7.72;3.92;;;;;;;;;;5051017;28;20421;-78
2023/04/28 06:27:44;;;;;;;7.95;2.85;;;;;;;;;;5039253;28;20101;-77
2023/04/28 06:30:10;;;;;;;7.93;4.57;;;;;;;;;;5043348;28;20032;-77
2023/04/28 06:32:35;;;;;;;9.00;3.90;;;10.60;99.90;;;;;;5052509;28;20484;-78
2023/04/28 06:35:01;;;;;;;5.18;3.72;;;;;;;;;;5039155;28;20021;-77
2023/04/28 06:37:27;;;;;;;7.45;4.03;;;;;;;;;;5050870;28;20112;-77
2023/04/28 06:39:53;;;;;;;8.15;3.95;;;;;;;;;;5046097;28;20043;-77
2023/04/28 06:42:19;;;;;;;9.73;4.30;;;;;;;;;;5045421;28;20033;-78
2023/04/28 06:44:45;;;;;;;6.32;3.58;;;;;;;;;;5038089;28;20480;-77
2023/04/28 06:47:11;;;;;;;8.25;4.20;;;;;;;;;;5046949;28;20135;-77
2023/04/28 06:49:37;;;;;;;12.30;5.18;;;;;;;;;;5049445;28;20603;-78
2023/04/28 06:52:03;;;;;;;9.00;4.55;;;;;;;;;;5040278;28;20052;-78
2023/04/28 06:54:29;;;;;;;11.10;4.93;;;;;;;;;;5053776;28;20052;-78
2023/04/28 06:56:55;;;;;;;10.27;4.85;;;;;;;;;;5049866;28;20033;-77
2023/04/28 06:59:21;;;;;;;7.82;4.18;;;;;;;;;;5051245;28;20027;-79
2023/04/28 07:01:47;;;;;;;6.55;3.78;;;11.80;99.90;;;;;;5052661;28;20055;-78
2023/04/28 07:04:13;;;;;;;6.40;3.53;;;;;;;;;;5045645;28;20036;-78
2023/04/28 07:06:39;;;;;;;5.65;3.40;;;;;;;;;;5054225;28;20405;-78
2023/04/28 07:09:05;;;;;;;5.85;3.55;;;;;;;;;;5055097;28;20163;-78
2023/04/28 07:11:32;;;;;;;6.75;3.50;;;;;;;;;;5045868;28;20039;-78
2023/04/28 07:13:58;;;;;;;9.32;3.33;;;;;;;;;;5046022;28;20034;-78
2023/04/28 07:16:25;;;;;;;11.55;3.88;;;;;;;;;;5054301;28;20040;-78
2023/04/28 07:18:51;;;;;;;4.60;2.80;;;;;;;;;;5054212;28;20070;-78
2023/04/28 07:21:17;;;;;;;7.35;4.03;;;;;;;;;;5047065;28;20109;-78
2023/04/28 07:23:43;;;;;;;6.80;4.13;;;;;;;;;;5054795;28;20178;-78
2023/04/28 07:26:09;;;;;;;9.63;5.07;;;;;;;;;;5055298;28;20136;-78
2023/04/28 07:28:35;;;;;;;8.52;5.18;;;;;;;;;;5047492;28;20044;-78
2023/04/28 07:31:01;;;;;;;10.00;3.45;;;;;;;;;;5058948;28;20040;-77
2023/04/28 07:33:28;;;;;;;6.75;3.67;;;;;;;;;;5053782;28;20089;-78
2023/04/28 07:35:54;;;;;;;3.75;2.42;;;;;;;;;;5058327;28;20032;-79
2023/04/28 07:38:20;;;;;;;7.20;2.83;;;;;;;;;;5059024;28;20041;-78
2023/04/28 07:40:46;;;;;;;5.65;3.33;;;;;;;;;;5054633;28;20149;-78
2023/04/28 07:43:12;;;;;;;11.45;4.38;;;;;;;;;;5051224;28;20610;-79
2023/04/28 07:45:39;;;;;;;5.35;3.58;;;;;;;;;;5056365;28;20119;-78
2023/04/28 07:48:05;;;;;;;6.47;3.50;;;;;;;;;;5062776;28;20057;-79
2023/04/28 07:50:31;;;;;;;6.07;3.28;;;;;;;;;;5054620;28;20547;-77
2023/04/28 07:52:57;;;;;;;5.40;2.85;;;;;;;;;;5056719;28;20021;-78
2023/04/28 07:55:24;;;;;;;6.65;3.67;;;;;;;;;;5060636;28;20025;-79
2023/04/28 07:57:50;;;;;;;5.88;3.30;;;;;;;;;;5043930;28;20059;-79
2023/04/28 08:00:16;;;;;;;8.93;2.95;;;;;;;;;;5057692;28;20029;-78
2023/04/28 08:02:42;;;;;;;4.30;2.15;;;;;;;;;;5063576;28;20108;-79
2023/04/28 08:05:08;;;;;;;4.43;2.60;;;;;;;;;;5046718;28;20087;-79
2023/04/28 08:07:36;;;;;;;5.85;3.00;;;;;;;;;;5058860;28;20041;-80
2023/04/28 08:10:02;;;;;;;6.40;2.88;;;;;;;;;;5066818;28;20029;-79
2023/04/28 08:12:28;;;;;;;5.20;3.20;;;;;;;;;;5050713;28;20029;-79
2023/04/28 08:14:54;;;;;;;4.80;2.88;;;;;;;;;;5052174;28;20241;-79
2023/04/28 08:17:20;;;;;;;10.10;3.28;;;;;;;;;;5062346;28;20028;-80
2023/04/28 08:19:46;;;;;;;6.05;2.70;;;;;;;;;;5050644;28;20111;-81
2023/04/28 08:22:12;;;;;;;3.13;2.20;;;12.10;99.90;;;;;;5059195;28;20120;-80
2023/04/28 08:24:38;;;;;;;5.18;2.80;;;;;;;;;;5061593;28;20028;-80
2023/04/28 08:27:04;;;;;;;4.90;3.03;;;;;;;;;;5047846;28;20409;-79
2023/04/28 08:29:31;;;;;;;6.72;3.33;;;;;;;;;;5043778;28;20492;-80
2023/04/28 08:31:57;;;;;;;5.32;2.92;;;;;;;;;;5053962;28;20159;-80
2023/04/28 08:34:23;;;;;;;4.88;2.08;;;;;;;;;;5054501;28;20037;-79
2023/04/28 08:36:50;;;;;;;5.22;2.25;;;12.10;99.90;;;;;;5041756;28;20029;-80
2023/04/28 08:39:16;;;;;;;4.88;2.88;;;;;;;;;;5060231;28;20104;-80
2023/04/28 08:41:42;;;;;;;4.97;2.45;;;;;;;;;;5051040;28;20100;-81
2023/04/28 08:44:09;;;;;;;6.97;2.42;;;;;;;;;;5041020;28;20029;-80
2023/04/28 08:46:35;;;;;;;3.80;2.25;;;;;;;;;;5058646;28;20033;-80
2023/04/28 08:49:03;;;;;;;4.20;2.17;;;;;;;;;;5055493;28;20497;-80
2023/04/28 08:51:33;;;;;;;4.07;2.25;;;;;;;;;;5046492;28;20024;-80
2023/04/28 08:54:05;;;;;;;5.20;2.78;;;12.60;99.90;;;;;;5055979;28;20576;-80
2023/04/28 08:56:33;;;;;;;4.03;2.08;;;;;;;;;;5053492;28;20032;-80
2023/04/28 08:59:03;;;;;;;5.00;2.85;;;;;;;;;;5047488;28;20033;-80
2023/04/28 09:01:30;;;;;;;5.75;3.35;;;;;;;;;;5059427;28;20025;-80
2023/04/28 09:03:56;;;;;;;9.98;2.38;;;;;;;;;;5055081;28;20055;-80
2023/04/28 09:06:22;;;;;;;4.00;2.30;;;;;;;;;;5059612;28;20041;-81
2023/04/28 09:08:48;;;;;;;4.15;2.13;;;;;;;;;;5061492;28;20059;-80
2023/04/28 09:11:15;;;;;;;4.40;1.85;;;;;;;;;;5043199;28;20485;-80
2023/04/28 09:13:42;;;;;;;4.40;2.08;;;13.40;99.90;;;;;;5056658;28;20050;-79
2023/04/28 09:16:08;;;;;;;3.60;1.95;;;;;;;;;;5052044;28;20028;-80
2023/04/28 09:18:33;;;;;;;4.47;2.13;;;14.40;99.90;;;;;;5054901;28;20039;-80
2023/04/28 09:21:06;;;;;;;2.88;1.90;;;;;;;;;;5048067;28;20092;-78
2023/04/28 09:23:32;;;;;;;2.85;1.67;;;;;;;;;;5053865;28;20508;-80
2023/04/28 09:25:59;;;;;;;7.38;2.33;;;14.90;99.90;;;;;;5059798;28;20040;-79
2023/04/28 09:28:25;;;;;;;5.53;2.30;;;14.40;99.90;;;;;;5042698;28;20057;-80
2023/04/28 09:30:51;;;;;;;3.67;1.88;;;;;;;;;;5059515;28;20028;-80
2023/04/28 09:33:17;;;;;;;4.65;2.35;;;;;;;;;;5062461;28;20082;-79
2023/04/28 09:35:47;;;;;;;3.38;1.77;;;;;;;;;;5048941;28;20017;-79
2023/04/28 09:38:13;;;;;;;3.40;1.63;;;;;;;;;;5051905;28;20036;-79
2023/04/28 09:41:06;;;;;;;4.47;1.88;;;;;;;;;;5048010;28;20029;-79
2023/04/28 09:43:33;;;;;;;3.75;1.90;;;;;;;;;;5050239;28;20792;-79
2023/04/28 09:46:04;;;;;;;3.05;1.80;;;15.20;99.90;;;;;;5047455;28;20496;-79
2023/04/28 09:48:34;;;;;;;5.43;2.22;;;;;;;;;;5058616;28;20032;-80
2023/04/28 09:51:04;;;;;;;4.70;2.20;;;;;;;;;;5054049;28;20052;-78
2023/04/28 09:53:31;;;;;;;4.93;2.28;;;;;;;;;;5052089;28;20033;-78
2023/04/28 09:55:58;;;;;;;3.92;1.90;;;;;;;;;;5060145;28;20029;-79
2023/04/28 09:58:25;;;;;;;3.45;1.60;;;;;;;;;;5045743;28;20036;-79
2023/04/28 10:00:54;;;;;;;3.50;2.03;;;;;;;;;;5060753;28;20397;-79
2023/04/28 10:03:22;;;;;;;3.35;1.80;;;;;;;;;;5060582;28;20029;-79
2023/04/28 10:05:49;;;;;;;3.35;1.85;;;;;;;;;;5054741;28;20277;-79
2023/04/28 10:08:16;;;;;;;4.15;2.05;;;;;;;;;;5060789;28;20444;-78
2023/04/28 10:10:43;;;;;;;4.78;1.77;;;;;;;;;;5050285;28;20202;-79
2023/04/28 10:13:09;;;;;;;5.75;1.63;;;;;;;;;;5062144;28;20041;-79
2023/04/28 10:15:36;;;;;;;5.30;2.45;;;;;;;;;;5053131;28;20039;-80
2023/04/28 10:18:02;;;;;;;3.45;2.30;;;14.70;99.90;;;;;;5061722;28;20021;-78
2023/04/28 10:20:29;;;;;;;4.97;1.85;;;;;;;;;;5054554;28;20061;-79
2023/04/28 10:23:06;;;;;;;4.53;1.92;;;;;;;;;;5051592;28;20038;-80
2023/04/28 10:25:37;;;;;;;3.67;1.88;;;;;;;;;;5061770;28;20033;-79
2023/04/28 10:28:08;;;;;;;2.22;1.38;;;14.50;99.90;;;;;;5050174;28;20171;-80
2023/04/28 10:30:34;;;;;;;7.45;1.65;;;;;;;;;;5053828;28;20160;-79
2023/04/28 10:33:12;;;;;;;5.32;1.70;;;14.80;99.90;;;;;;5049676;28;20037;-79
2023/04/28 10:35:39;;;;;;;3.42;1.40;;;;;;;;;;5053541;28;20072;-80
2023/04/28 10:38:12;;;;;;;2.95;1.48;;;16.00;99.90;;;;;;5055273;28;20089;-80
2023/04/28 10:40:40;;;;;;;4.65;1.65;;;;;;;;;;5049043;28;20430;-79
2023/04/28 10:43:06;;;;;;;2.83;1.60;;;;;;;;;;5054438;28;20025;-79
2023/04/28 10:45:51;;;;;;;3.15;1.38;;;;;;;;;;5036789;28;20382;-79
2023/04/28 10:48:21;;;;;;;4.45;2.10;;;;;;;;;;5059460;28;20064;-79
2023/04/28 10:51:14;;;;;;;2.92;1.65;;;;;;;;;;5051156;28;20025;-78
2023/04/28 10:53:45;;;;;;;2.15;1.25;;;;;;;;;;5061917;28;20434;-82
2023/04/28 10:56:15;;;;;;;2.35;0.95;;;;;;;;;;5038176;28;20037;-82
2023/04/28 10:58:42;;;;;;;2.47;1.45;;;;;;;;;;5045217;28;20069;-83
2023/04/28 11:01:20;;;;;;;5.28;1.85;;;;;;;;;;5045659;28;20316;-82
2023/04/28 11:03:47;;;;;;;3.92;2.17;;;;;;;;;;5061513;28;20043;-81
2023/04/28 11:06:33;;;;;;;2.72;1.30;;;;;;;;;;5036849;28;20038;-82
2023/04/28 11:09:03;;;;;;;2.10;1.10;;;;;;;;;;5032216;28;20512;-79
2023/04/28 11:11:30;;;;;;;1.95;1.45;;;;;;;;;;5042235;28;20045;-79
2023/04/28 11:14:16;;;;;;;4.32;1.33;;;;;;;;;;5031580;28;20833;-79
2023/04/28 11:16:58;;;;;;;2.45;1.23;;;;;;;;;;5025850;28;20021;-79
2023/04/28 11:19:30;;;;;;;2.55;1.05;;;;;;;;;;5040956;28;20028;-80
2023/04/28 11:21:57;;;;;;;3.38;1.42;;;;;;;;;;5046998;28;20606;-80
2023/04/28 11:24:24;;;;;;;1.73;0.90;;;16.50;99.90;;;;;;5038592;28;21748;-80
2023/04/28 11:26:51;;;;;;;1.48;0.80;;;;;;;;;;5038773;28;20044;-80
2023/04/28 11:29:17;;;;;;;2.30;1.42;;;;;;;;;;5040153;28;20021;-79
2023/04/28 11:31:52;;;;;;;2.65;1.20;;;16.40;99.90;;;;;;5043440;28;20051;-81
2023/04/28 11:34:23;;;;;;;1.25;0.90;;;;;;;;;;5044103;28;20068;-81
2023/04/28 11:36:49;;;;;;;2.67;1.35;;;;;;;;;;5036492;28;20025;-80
2023/04/28 11:39:15;;;;;;;3.42;1.90;;;;;;;;;;5046062;28;20033;-81
2023/04/28 11:41:42;;;;;;;4.82;2.38;;;;;;;;;;5039277;28;20143;-79
2023/04/28 11:44:19;;;;;;;4.60;2.25;;;15.90;99.90;;;;;;5031869;28;20123;-80
2023/04/28 11:46:56;;;;;;;4.20;1.88;;;;;;;;;;5043140;28;20060;-80
2023/04/28 11:49:27;;;;;;;3.58;1.92;;;15.90;99.90;;;;;;5043952;28;20029;-81
2023/04/28 11:51:54;;;;;;;2.20;1.10;;;;;;;;;;5038030;28;20109;-80
2023/04/28 11:54:24;;;;;;;1.65;0.98;;;;;;;;;;5045069;28;20069;-80
2023/04/28 11:56:51;;;;;;;2.40;1.23;;;;;;;;;;5047361;28;20056;-81
2023/04/28 11:59:19;;;;;;;4.60;1.02;;;;;;;;;;5040668;28;20415;-81
2023/04/28 12:01:46;;;;;;;2.28;0.80;;;15.10;99.90;;;;;;5044465;28;20447;-81
2023/04/28 12:04:13;;;;;;;1.92;1.00;;;;;;;;;;5051979;28;20021;-80
2023/04/28 12:06:39;;;;;;;2.45;1.10;;;;;;;;;;5037934;28;20044;-82
2023/04/28 12:09:24;;;;;;;3.90;1.90;;;;;;;;;;5046200;28;20033;-82
2023/04/28 12:11:54;;;;;;;1.85;1.00;;;;;;;;;;5042441;28;20029;-82
2023/04/28 12:14:20;;;;;;;2.78;2.10;;;;;;;;;;5037598;28;20025;-82
2023/04/28 12:16:47;;;;;;;3.35;2.30;;;;;;;;;;5063188;28;20081;-82
2023/04/28 12:19:14;;;;;;;3.30;2.58;;;;;;;;;;5049184;28;20276;-81
2023/04/28 12:21:41;;;;;;;1.75;1.13;;;;;;;;;;5050715;28;20088;-81
2023/04/28 12:24:14;;;;;;;2.22;1.30;;;;;;;;;;5031956;28;20115;-82
2023/04/28 12:26:41;;;;;;;0.93;0.60;;;;;;;;;;5028569;28;20037;-81
2023/04/28 12:29:08;;;;;;;1.88;0.77;;;;;;;;;;5029054;28;20029;-81
2023/04/28 12:31:47;;;;;;;4.28;0.65;;;;;;;;;;5034810;28;20060;-79
2023/04/28 12:34:13;;;;;;;2.65;0.77;;;;;;;;;;5045501;28;20028;-81
2023/04/28 12:36:39;;;;;;;1.92;0.60;;;;;;;;;;5042721;28;20025;-80
2023/04/28 12:39:12;;;;;;;0.73;0.40;;;;;;;;;;5034545;28;20180;-80
2023/04/28 12:41:38;;;;;;;1.27;0.60;;;;;;;;;;5041332;28;20029;-80
2023/04/28 12:44:04;;;;;;;1.00;0.70;;;;;;;;;;5032604;28;20036;-81
2023/04/28 12:46:30;;;;;;;1.50;0.70;;;;;;;;;;5034262;28;20524;-80
2023/04/28 12:48:56;;;;;;;2.63;0.90;;;;;;;;;;5031567;28;20482;-80
2023/04/28 12:51:22;;;;;;;4.72;1.20;;;;;;;;;;5040739;28;20152;-81
2023/04/28 12:53:48;;;;;;;3.15;1.30;;;;;;;;;;5034367;28;20642;-80
2023/04/28 12:56:14;;;;;;;5.25;1.08;;;;;;;;;;5041742;28;20040;-81
2023/04/28 12:58:40;;;;;;;4.80;1.50;;;;;;;;;;5045252;28;20024;-80
2023/04/28 13:01:07;;;;;;;3.10;1.42;;;;;;;;;;5034687;28;20032;-81
2023/04/28 13:03:33;;;;;;;2.38;1.05;;;;;;;;;;5038100;28;20017;-79
2023/04/28 13:05:59;;;;;;;6.43;1.25;;;;;;;;;;5045958;28;20087;-79
2023/04/28 13:08:24;;;;;;;2.58;1.33;;;;;;;;;;5039295;28;20413;-81
2023/04/28 13:10:50;;;;;;;2.30;0.90;;;;;;;;;;5034666;28;20633;-80
2023/04/28 13:13:16;;;;;;;4.25;2.13;;;;;;;;;;5045496;28;20758;-80
2023/04/28 13:15:42;;;;;;;10.63;3.70;;;;;;;;;;5046151;28;20023;-80
2023/04/28 13:18:08;;;;;;;5.80;2.42;;;;;;;;;;5044831;28;20090;-80
2023/04/28 13:20:34;;;;;;;4.03;2.33;;;;;;;;;;5035761;28;20043;-82
2023/04/28 13:23:00;;;;;;;3.65;1.70;;;;;;;;;;5039044;28;20044;-80
2023/04/28 13:25:26;;;;;;;2.58;1.05;;;;;;;;;;5025587;28;20060;-79
2023/04/28 13:27:52;;;;;;;2.50;1.27;;;;;;;;;;5043796;28;20409;-82
2023/04/28 13:30:18;;;;;;;3.13;1.30;;;;;;;;;;5036646;28;20243;-80
2023/04/28 13:32:44;;;;;;;2.33;0.95;;;;;;;;;;5041375;28;20035;-80
2023/04/28 13:35:10;;;;;;;3.33;1.48;;;;;;;;;;5043469;28;20642;-80
2023/04/28 13:37:41;;;;;;;4.15;2.08;;;;;;;;;;5026717;28;20745;-79
2023/04/28 13:40:07;;;;;;;3.58;1.65;;;;;;;;;;5035030;28;20120;-79
2023/04/28 13:42:33;;;;;;;3.35;1.33;;;;;;;;;;5041219;28;20025;-80
2023/04/28 13:44:59;;;;;;;8.07;3.83;;;;;;;;;;5033081;28;20068;-80
2023/04/28 13:47:25;;;;;;;6.22;3.10;;;;;;;;;;5038033;28;20056;-79
2023/04/28 13:49:51;;;;;;;6.78;2.55;;;;;;;;;;5034047;28;20071;-80
2023/04/28 13:52:17;;;;;;;10.60;3.67;;;;;;;;;;5027962;28;20033;-80
2023/04/28 13:54:43;;;;;;;6.60;3.33;;;;;;;;;;5038003;28;20233;-80
2023/04/28 13:57:12;;;;;;;4.40;1.98;;;;;;;;;;5031533;28;20152;-81
2023/04/28 13:59:38;;;;;;;3.40;1.20;;;;;;;;;;5028845;28;20144;-80
2023/04/28 14:02:04;;;;;;;3.47;1.33;;;;;;;;;;5042323;28;20937;-80
2023/04/28 14:04:30;;;;;;;2.85;1.10;;;;;;;;;;5041742;28;20432;-81
2023/04/28 14:06:56;;;;;;;3.10;1.67;;;;;;;;;;5033763;28;20052;-81
2023/04/28 14:09:22;;;;;;;1.95;1.33;;;;;;;;;;5039802;28;20108;-79
2023/04/28 14:11:48;;;;;;;2.67;1.30;;;;;;;;;;5041965;28;20026;-81
2023/04/28 14:14:14;;;;;;;2.22;1.17;;;;;;;;;;5041891;28;20029;-80
2023/04/28 14:16:40;;;;;;;1.88;1.33;;;;;;;;;;5040645;28;20034;-80
2023/04/28 14:19:07;;;;;;;3.63;1.77;;;;;;;;;;5026577;28;20021;-80
2023/04/28 14:21:33;;;;;;;2.00;1.38;;;15.00;99.90;;;;;;5048485;28;20063;-80
2023/04/28 14:23:59;;;;;;;4.57;1.70;;;;;;;;;;5035149;28;20032;-80
2023/04/28 14:26:25;;;;;;;1.05;0.82;;;;;;;;;;5031630;28;20449;-80
2023/04/28 14:28:51;;;;;;;2.15;0.90;;;;;;;;;;5036420;28;20127;-80
2023/04/28 14:31:17;;;;;;;2.35;0.85;;;;;;;;;;5039736;28;20028;-81
2023/04/28 14:33:43;;;;;;;1.77;0.47;;;;;;;;;;5036587;28;20060;-80